Stacja Pogody
Warszawa Praga-Północ

Szerokość 52°15'43"N Długość 21°01'22"E Wysokość 110m n.p.m.


269 dzień roku. Do końca pozostalo 97 dni.
Wschód Słońca 06:27 Górowanie Słońca 12:27 Zachód Słońca 18:28 waga
Data juliańska 2457657.807 Odległość Słońca 149950244 km Średn. kątowa Słońca 0,319°
Wschód Księżyca 00:12 Zachód Księżyca 15:52 Wiek Księżyca 24 dni Moon
Widoczność Księżyca 31,15% Odległość Księżyca 376900 km Średn. kątowa Księżyca 0,317°
Dzień krótszy od najdłuższego o: 04:46 Długość dnia 12:01 Imieniny Aurelii, Władysława, Kleofasa



  Aktualizacja: 25-09-2016 07:21:52
TEMPERATURA
Aktualnie: 8.5°C →
Temperatura odczuwalna:7.8°C
Punkt rosy7.1°C
WIATR
Średnia prędkość: 0.0km/h →
Prędkość w podmuchach:0.0km/h
Przepływ w ciągu doby:93.2km
Kierunek wiatru:315°
CIŚNIENIE
Względne:1025.5hPa
Bezwzględne:1012.2hPa
Trend ciśnienia:powolny wzrost
WILGOTNOŚĆ
Wilgotność względna: 91% →
Podstawa chmur738m
DESZCZ
W ostatniej godzinie: 0.0mm
Dzisiaj:0.0mm
W tym miesiącu:32.1mm
METAR
EPWA 250500Z VRB02KT 9999 MIFG FEW043 06/06 Q1025 NOSIG
Ostrzeżenia burzowe





a  a a